createdAt,value
2023-01-28T00:01:25.339Z,23.98
2023-01-28T00:03:53.554Z,23.81
2023-01-28T00:06:20.541Z,23.92
2023-01-28T00:08:48.342Z,24.00
2023-01-28T00:11:15.198Z,23.81
2023-01-28T00:13:42.340Z,23.83
2023-01-28T00:16:09.923Z,24.02
2023-01-28T00:18:37.683Z,24.00
2023-01-28T00:21:08.288Z,24.33
2023-01-28T00:23:37.128Z,24.19
2023-01-28T00:26:06.619Z,23.89
2023-01-28T00:28:34.050Z,23.85
2023-01-28T00:31:06.814Z,23.81
2023-01-28T00:33:33.996Z,23.92
2023-01-28T00:36:01.823Z,23.81
2023-01-28T00:38:30.237Z,24.15
2023-01-28T00:41:06.639Z,24.02
2023-01-28T00:43:33.665Z,24.01
2023-01-28T00:46:00.476Z,24.01
2023-01-28T00:48:27.744Z,23.85
2023-01-28T00:50:54.573Z,23.96
2023-01-28T00:53:21.444Z,24.21
2023-01-28T00:55:49.681Z,24.09
2023-01-28T00:58:16.569Z,23.99
2023-01-28T01:00:43.684Z,24.24
2023-01-28T01:03:11.024Z,23.95
2023-01-28T01:05:38.195Z,24.12
2023-01-28T01:08:05.507Z,24.01
2023-01-28T01:10:32.371Z,24.24
2023-01-28T01:13:01.282Z,24.09
2023-01-28T01:15:28.205Z,24.20
2023-01-28T01:17:57.190Z,24.01
2023-01-28T01:20:27.908Z,23.93
2023-01-28T01:22:54.916Z,24.11
2023-01-28T01:25:21.912Z,24.29
2023-01-28T01:27:49.970Z,24.27
2023-01-28T01:30:21.359Z,24.19
2023-01-28T01:32:48.269Z,24.29
2023-01-28T01:35:15.545Z,24.23
2023-01-28T01:37:44.652Z,24.12
2023-01-28T01:40:12.735Z,24.31
2023-01-28T01:42:39.704Z,24.23
2023-01-28T01:45:08.170Z,24.29
2023-01-28T01:47:44.095Z,23.98
2023-01-28T01:50:19.087Z,24.26
2023-01-28T01:52:47.609Z,23.98
2023-01-28T01:55:18.389Z,24.26
2023-01-28T01:57:48.110Z,24.35
2023-01-28T02:00:16.452Z,24.05
2023-01-28T02:02:51.424Z,24.29
2023-01-28T02:05:20.357Z,24.08
2023-01-28T02:07:50.198Z,24.35
2023-01-28T02:10:18.538Z,24.35
2023-01-28T02:12:49.936Z,24.26
2023-01-28T02:15:17.939Z,24.17
2023-01-28T02:17:45.625Z,24.34
2023-01-28T02:20:21.486Z,24.29
2023-01-28T02:23:13.113Z,24.42
2023-01-28T02:26:10.391Z,24.11
2023-01-28T02:28:45.259Z,24.28
2023-01-28T02:31:19.699Z,24.07
2023-01-28T02:33:56.511Z,24.26
2023-01-28T02:36:30.535Z,24.48
2023-01-28T02:39:03.428Z,24.26
2023-01-28T02:41:34.601Z,24.24
2023-01-28T02:44:04.447Z,24.29
2023-01-28T02:46:55.069Z,24.35
2023-01-28T02:49:26.884Z,24.24
2023-01-28T02:52:11.563Z,24.29
2023-01-28T02:54:45.124Z,24.20
2023-01-28T02:57:24.425Z,24.39
2023-01-28T03:00:01.778Z,24.24
2023-01-28T03:02:36.397Z,24.19
2023-01-28T03:05:09.267Z,24.33
2023-01-28T03:07:38.315Z,24.26
2023-01-28T03:10:09.888Z,24.45
2023-01-28T03:13:00.167Z,24.27
2023-01-28T03:15:50.971Z,24.38
2023-01-28T03:18:41.859Z,24.63
2023-01-28T03:21:31.317Z,24.43
2023-01-28T03:24:22.985Z,24.28
2023-01-28T03:27:16.898Z,24.34
2023-01-28T03:30:07.188Z,24.43
2023-01-28T03:32:56.358Z,24.24
2023-01-28T03:35:45.902Z,24.56
2023-01-28T03:38:21.025Z,24.31
2023-01-28T03:40:53.213Z,24.53
2023-01-28T03:43:20.323Z,24.52
2023-01-28T03:45:51.453Z,24.37
2023-01-28T03:48:21.569Z,24.62
2023-01-28T03:50:49.291Z,24.73
2023-01-28T03:53:17.218Z,24.46
2023-01-28T03:55:53.162Z,24.30
2023-01-28T03:58:21.037Z,24.30
2023-01-28T04:00:48.224Z,24.63
2023-01-28T04:03:17.778Z,24.39
2023-01-28T04:06:00.930Z,24.70
2023-01-28T04:08:39.790Z,24.54
2023-01-28T04:11:25.538Z,24.58
2023-01-28T04:13:53.543Z,24.46
2023-01-28T04:16:21.190Z,24.37
2023-01-28T04:18:48.495Z,24.70
2023-01-28T04:21:17.713Z,24.58
2023-01-28T04:23:44.676Z,24.63
2023-01-28T04:26:14.048Z,24.41
2023-01-28T04:28:40.964Z,24.64
2023-01-28T04:31:08.252Z,24.54
2023-01-28T04:33:53.713Z,24.47
2023-01-28T04:36:42.257Z,24.38
2023-01-28T04:39:28.177Z,24.54
2023-01-28T04:42:16.846Z,24.57
2023-01-28T04:45:16.381Z,24.49
2023-01-28T04:47:51.609Z,24.54
2023-01-28T04:50:45.820Z,24.45
2023-01-28T04:53:28.075Z,24.57
2023-01-28T04:55:57.975Z,24.33
2023-01-28T04:58:26.134Z,24.45
2023-01-28T05:00:58.008Z,24.29
2023-01-28T05:03:25.577Z,24.43
2023-01-28T05:05:52.819Z,24.33
2023-01-28T05:08:34.647Z,24.61
2023-01-28T05:11:01.652Z,24.29
2023-01-28T05:13:28.701Z,24.39
2023-01-28T05:15:55.640Z,24.50
2023-01-28T05:18:22.566Z,24.27
2023-01-28T05:21:04.045Z,24.24
2023-01-28T05:23:34.121Z,24.33
2023-01-28T05:26:01.225Z,24.37
2023-01-28T05:28:29.386Z,24.44
2023-01-28T05:31:02.351Z,24.58
2023-01-28T05:33:29.848Z,24.66
2023-01-28T05:35:57.365Z,24.21
2023-01-28T05:38:24.263Z,24.39
2023-01-28T05:40:53.005Z,24.39
2023-01-28T05:43:19.858Z,24.57
2023-01-28T05:46:12.758Z,24.67
2023-01-28T05:48:58.003Z,24.25
2023-01-28T05:51:43.744Z,24.56
2023-01-28T05:54:13.097Z,24.27
2023-01-28T05:56:41.431Z,24.32
2023-01-28T05:59:10.400Z,24.41
2023-01-28T06:01:38.638Z,24.67
2023-01-28T06:04:05.527Z,24.26
2023-01-28T06:06:32.497Z,24.55
2023-01-28T06:08:59.593Z,24.25
2023-01-28T06:11:29.577Z,24.70
2023-01-28T06:14:02.324Z,24.61
2023-01-28T06:16:42.862Z,24.37
2023-01-28T06:19:38.913Z,24.46
2023-01-28T06:22:07.538Z,24.47
2023-01-28T06:24:34.513Z,24.38
2023-01-28T06:27:01.430Z,24.33
2023-01-28T06:29:29.772Z,24.27
2023-01-28T06:31:56.667Z,24.68
2023-01-28T06:34:23.665Z,24.55
2023-01-28T06:36:51.126Z,24.29
2023-01-28T06:39:17.951Z,24.61
2023-01-28T06:41:44.819Z,24.42
2023-01-28T06:44:11.644Z,24.58
2023-01-28T06:46:39.916Z,24.46
2023-01-28T06:49:06.874Z,24.53
2023-01-28T06:51:33.745Z,24.83
2023-01-28T06:54:00.583Z,24.80
2023-01-28T06:56:27.436Z,24.73
2023-01-28T06:58:54.249Z,24.80
2023-01-28T07:01:21.159Z,24.74
2023-01-28T07:03:49.405Z,24.63
2023-01-28T07:06:16.970Z,24.52
2023-01-28T07:08:43.742Z,24.71
2023-01-28T07:11:10.700Z,24.62
2023-01-28T07:13:37.614Z,24.51
2023-01-28T07:16:04.990Z,24.49
2023-01-28T07:18:31.898Z,24.40
2023-01-28T07:21:00.096Z,24.18
2023-01-28T07:23:29.020Z,23.98
2023-01-28T07:25:56.167Z,24.22
2023-01-28T07:28:23.044Z,24.02
2023-01-28T07:30:53.402Z,23.98
2023-01-28T07:33:21.092Z,23.91
2023-01-28T07:35:48.665Z,24.20
2023-01-28T07:38:17.085Z,24.02
2023-01-28T07:40:45.260Z,23.82
2023-01-28T07:43:12.296Z,23.97
2023-01-28T07:45:40.766Z,23.77
2023-01-28T07:48:10.320Z,23.79
2023-01-28T07:50:38.252Z,23.74
2023-01-28T07:53:06.383Z,23.64
2023-01-28T07:55:38.279Z,23.74
2023-01-28T07:58:07.156Z,23.60
2023-01-28T08:00:35.955Z,23.50
2023-01-28T08:03:06.218Z,23.64
2023-01-28T08:05:43.445Z,23.33
2023-01-28T08:08:11.905Z,23.58
2023-01-28T08:10:40.329Z,23.42
2023-01-28T08:13:08.050Z,23.32
2023-01-28T08:15:35.439Z,23.16
2023-01-28T08:18:03.882Z,23.39
2023-01-28T08:20:30.954Z,23.07
2023-01-28T08:23:05.996Z,23.24
2023-01-28T08:25:33.963Z,23.18
2023-01-28T08:28:02.520Z,23.17
2023-01-28T08:30:29.409Z,22.92
2023-01-28T08:32:57.365Z,22.75
2023-01-28T08:35:24.513Z,23.17
2023-01-28T08:37:51.388Z,22.78
2023-01-28T08:40:18.895Z,22.99
2023-01-28T08:42:49.328Z,22.89
2023-01-28T08:45:18.445Z,23.06
2023-01-28T08:47:49.278Z,23.18
2023-01-28T08:50:17.697Z,23.27
2023-01-28T08:52:44.786Z,22.81
2023-01-28T08:55:12.301Z,23.06
2023-01-28T08:57:39.843Z,22.94
2023-01-28T09:00:08.428Z,22.89
2023-01-28T09:02:36.922Z,22.88
2023-01-28T09:05:05.409Z,22.97
2023-01-28T09:07:32.659Z,22.54
2023-01-28T09:09:59.445Z,22.72
2023-01-28T09:12:27.189Z,22.86
2023-01-28T09:14:54.179Z,22.88
2023-01-28T09:17:21.506Z,22.86
2023-01-28T09:19:49.700Z,22.64
2023-01-28T09:22:16.998Z,22.75
2023-01-28T09:24:43.780Z,22.93
2023-01-28T09:27:10.694Z,22.92
2023-01-28T09:29:38.752Z,22.62
2023-01-28T09:32:07.217Z,22.64
2023-01-28T09:34:34.136Z,22.73
2023-01-28T09:37:02.521Z,22.70
2023-01-28T09:39:29.571Z,22.82
2023-01-28T09:42:09.934Z,22.46
2023-01-28T09:44:54.217Z,22.41
2023-01-28T09:47:26.655Z,22.81
2023-01-28T09:49:57.178Z,22.59
2023-01-28T09:52:26.731Z,22.74
2023-01-28T09:55:00.289Z,22.59
2023-01-28T09:57:32.154Z,22.58
2023-01-28T09:59:59.447Z,22.68
2023-01-28T10:02:42.591Z,22.88
2023-01-28T10:05:20.390Z,23.32
2023-01-28T10:07:57.415Z,22.83
2023-01-28T10:10:29.121Z,22.77
2023-01-28T10:13:15.110Z,22.94
2023-01-28T10:15:53.947Z,22.84
2023-01-28T10:18:31.728Z,22.96
2023-01-28T10:21:06.453Z,22.69
2023-01-28T10:23:45.372Z,22.56
2023-01-28T10:26:21.692Z,22.82
2023-01-28T10:28:54.994Z,22.56
2023-01-28T10:31:23.797Z,22.67
2023-01-28T10:33:50.666Z,22.45
2023-01-28T10:36:18.347Z,22.60
2023-01-28T10:38:47.081Z,22.87
2023-01-28T10:41:22.307Z,22.87
2023-01-28T10:43:50.311Z,22.60
2023-01-28T10:46:21.249Z,22.85
2023-01-28T10:48:56.590Z,22.77
2023-01-28T10:51:34.796Z,22.48
2023-01-28T10:54:03.838Z,22.88
2023-01-28T10:56:32.584Z,22.56
2023-01-28T10:59:02.317Z,22.49
2023-01-28T11:01:42.308Z,22.47
2023-01-28T11:04:19.175Z,22.71
2023-01-28T11:06:56.818Z,22.56
2023-01-28T11:09:28.265Z,22.59
2023-01-28T11:11:54.944Z,22.73
2023-01-28T11:14:27.332Z,22.61
2023-01-28T11:16:56.454Z,22.69
2023-01-28T11:19:29.596Z,22.68
2023-01-28T11:21:57.977Z,22.57
2023-01-28T11:24:29.163Z,22.42
2023-01-28T11:26:58.715Z,22.68
2023-01-28T11:29:30.512Z,22.85
2023-01-28T11:31:59.412Z,22.52
2023-01-28T11:34:28.513Z,22.76
2023-01-28T11:37:02.734Z,22.50
2023-01-28T11:39:31.345Z,22.49
2023-01-28T11:42:11.918Z,22.69
2023-01-28T11:44:39.415Z,22.37
2023-01-28T11:47:32.359Z,22.71
2023-01-28T11:50:26.478Z,22.74
2023-01-28T11:53:08.355Z,22.33
2023-01-28T11:55:45.908Z,22.33
2023-01-28T11:58:24.038Z,22.38
2023-01-28T12:01:01.641Z,22.44
2023-01-28T12:03:55.201Z,22.66
2023-01-28T12:06:40.302Z,22.49
2023-01-28T12:09:15.981Z,22.36
2023-01-28T12:12:11.903Z,22.46
2023-01-28T12:14:54.946Z,22.27
2023-01-28T12:17:32.962Z,22.68
2023-01-28T12:20:12.580Z,22.21
2023-01-28T12:23:05.225Z,22.79
2023-01-28T12:25:46.318Z,22.73
2023-01-28T12:28:24.303Z,22.48
2023-01-28T12:31:11.438Z,22.42
2023-01-28T12:34:02.779Z,22.50
2023-01-28T12:36:46.840Z,22.52
2023-01-28T12:39:26.255Z,22.55
2023-01-28T12:42:04.294Z,22.53
2023-01-28T12:44:37.790Z,22.37
2023-01-28T12:47:10.293Z,22.54
2023-01-28T12:49:42.651Z,22.58
2023-01-28T12:52:15.336Z,22.31
2023-01-28T12:54:53.792Z,22.72
2023-01-28T12:57:23.883Z,22.61
2023-01-28T12:59:58.561Z,22.56
2023-01-28T13:02:29.980Z,22.73
2023-01-28T13:05:00.746Z,22.95
2023-01-28T13:07:34.298Z,22.84
2023-01-28T13:10:05.646Z,23.08
2023-01-28T13:12:33.933Z,23.26
2023-01-28T13:15:02.760Z,23.13
2023-01-28T13:17:31.676Z,23.15
2023-01-28T13:19:59.857Z,23.38
2023-01-28T13:22:30.996Z,22.92
2023-01-28T13:25:11.891Z,23.19
2023-01-28T13:27:38.748Z,23.08
2023-01-28T13:30:26.015Z,22.87
2023-01-28T13:32:59.232Z,23.06
2023-01-28T13:35:32.620Z,22.83
2023-01-28T13:38:08.316Z,22.72
2023-01-28T13:40:36.089Z,22.73
2023-01-28T13:43:05.249Z,22.79
2023-01-28T13:45:34.157Z,22.85
2023-01-28T13:48:15.457Z,22.91
2023-01-28T13:50:43.272Z,22.67
2023-01-28T13:53:23.690Z,22.70
2023-01-28T13:55:55.332Z,22.58
2023-01-28T13:58:36.711Z,22.82
2023-01-28T14:01:55.311Z,22.84
2023-01-28T14:04:43.137Z,22.74
2023-01-28T14:07:37.023Z,22.82
2023-01-28T14:10:17.948Z,22.93
2023-01-28T14:12:58.501Z,22.71
2023-01-28T14:15:57.418Z,22.66
2023-01-28T14:18:29.752Z,22.99
2023-01-28T14:21:01.474Z,22.92
2023-01-28T14:23:31.978Z,22.89
2023-01-28T14:26:16.373Z,22.86
2023-01-28T14:28:55.190Z,22.99
2023-01-28T14:31:27.904Z,22.81
2023-01-28T14:34:06.872Z,22.63
2023-01-28T14:36:37.710Z,22.65
2023-01-28T14:39:04.608Z,22.57
2023-01-28T14:41:31.608Z,22.62
2023-01-28T14:43:58.665Z,22.49
2023-01-28T14:46:36.128Z,22.76
2023-01-28T14:49:20.091Z,22.72
2023-01-28T14:52:12.522Z,22.92
2023-01-28T14:54:50.542Z,22.87
2023-01-28T14:57:34.565Z,22.93
2023-01-28T15:00:02.162Z,22.79
2023-01-28T15:02:31.296Z,22.87
2023-01-28T15:05:10.233Z,23.10
2023-01-28T15:07:37.519Z,22.79
2023-01-28T15:10:06.723Z,23.06
2023-01-28T15:12:38.565Z,22.93
2023-01-28T15:15:10.557Z,23.05
2023-01-28T15:17:38.660Z,23.00
2023-01-28T15:20:09.758Z,22.78
2023-01-28T15:22:38.831Z,23.03
2023-01-28T15:25:05.968Z,23.09
2023-01-28T15:27:32.986Z,22.77
2023-01-28T15:30:00.047Z,22.90
2023-01-28T15:32:29.591Z,22.88
2023-01-28T15:34:59.227Z,22.87
2023-01-28T15:37:28.087Z,22.90
2023-01-28T15:40:02.425Z,22.62
2023-01-28T15:42:31.834Z,22.70
2023-01-28T15:44:59.760Z,22.60
2023-01-28T15:47:32.424Z,22.88
2023-01-28T15:50:02.449Z,22.68
2023-01-28T15:52:34.206Z,22.69
2023-01-28T15:55:02.295Z,22.38
2023-01-28T15:57:31.279Z,22.59
2023-01-28T16:00:13.370Z,22.63
2023-01-28T16:02:44.639Z,22.64
2023-01-28T16:05:26.286Z,22.78
2023-01-28T16:07:56.425Z,22.67
2023-01-28T16:10:27.254Z,22.73
2023-01-28T16:12:58.286Z,22.55
2023-01-28T16:15:25.142Z,22.81
2023-01-28T16:17:52.807Z,22.58
2023-01-28T16:20:25.012Z,22.33
2023-01-28T16:22:58.116Z,22.59
2023-01-28T16:25:29.257Z,22.35
2023-01-28T16:27:56.814Z,22.26
2023-01-28T16:30:23.729Z,22.39
2023-01-28T16:32:50.866Z,22.41
2023-01-28T16:35:20.075Z,22.33
2023-01-28T16:37:48.165Z,22.46
2023-01-28T16:40:19.354Z,22.39
2023-01-28T16:42:48.663Z,22.24
2023-01-28T16:45:18.119Z,22.42
2023-01-28T16:47:45.304Z,22.32
2023-01-28T16:50:13.414Z,22.32
2023-01-28T16:52:42.145Z,22.49
2023-01-28T16:55:12.675Z,22.46
2023-01-28T16:57:41.563Z,22.27
2023-01-28T17:00:16.633Z,22.27
2023-01-28T17:02:43.601Z,22.34
2023-01-28T17:05:15.150Z,22.22
2023-01-28T17:07:42.817Z,22.40
2023-01-28T17:10:11.376Z,22.02
2023-01-28T17:12:38.221Z,22.27
2023-01-28T17:15:07.900Z,22.29
2023-01-28T17:17:34.972Z,22.32
2023-01-28T17:20:01.819Z,22.29
2023-01-28T17:22:28.722Z,22.43
2023-01-28T17:24:55.613Z,22.35
2023-01-28T17:27:22.569Z,22.46
2023-01-28T17:29:49.521Z,22.64
2023-01-28T17:32:17.710Z,22.75
2023-01-28T17:34:44.720Z,22.96
2023-01-28T17:37:11.704Z,23.06
2023-01-28T17:39:38.545Z,22.90
2023-01-28T17:42:05.457Z,23.01
2023-01-28T17:44:32.559Z,22.87
2023-01-28T17:46:59.440Z,22.87
2023-01-28T17:49:27.681Z,22.80
2023-01-28T17:51:54.994Z,23.09
2023-01-28T17:54:23.957Z,22.91
2023-01-28T17:56:50.851Z,22.80
2023-01-28T17:59:17.840Z,23.00
2023-01-28T18:01:45.211Z,22.79
2023-01-28T18:04:13.204Z,22.80
2023-01-28T18:06:41.442Z,22.78
2023-01-28T18:09:09.391Z,23.04
2023-01-28T18:11:36.287Z,22.87
2023-01-28T18:14:03.220Z,22.83
2023-01-28T18:16:30.103Z,22.99
2023-01-28T18:18:57.115Z,23.03
2023-01-28T18:21:46.349Z,23.13
2023-01-28T18:24:20.003Z,23.06
2023-01-28T18:26:46.901Z,23.09
2023-01-28T18:29:16.970Z,23.25
2023-01-28T18:31:44.164Z,23.02
2023-01-28T18:34:11.220Z,23.21
2023-01-28T18:36:38.379Z,22.93
2023-01-28T18:39:05.478Z,22.98
2023-01-28T18:41:33.773Z,23.17
2023-01-28T18:44:00.541Z,22.95
2023-01-28T18:46:27.411Z,22.89
2023-01-28T18:48:56.149Z,23.19
2023-01-28T18:51:30.930Z,22.96
2023-01-28T18:53:59.147Z,22.94
2023-01-28T18:56:26.672Z,22.46
2023-01-28T18:58:56.801Z,23.06
2023-01-28T19:01:23.892Z,22.74
2023-01-28T19:03:50.886Z,22.71
2023-01-28T19:06:17.919Z,22.86
2023-01-28T19:08:44.902Z,22.95
2023-01-28T19:11:11.807Z,23.00
2023-01-28T19:13:38.658Z,23.02
2023-01-28T19:16:07.430Z,23.23
2023-01-28T19:18:34.499Z,22.96
2023-01-28T19:21:02.432Z,23.10
2023-01-28T19:23:33.095Z,23.17
2023-01-28T19:26:07.898Z,23.31
2023-01-28T19:28:35.565Z,23.02
2023-01-28T19:31:03.215Z,22.88
2023-01-28T19:33:31.618Z,23.09
2023-01-28T19:35:59.701Z,22.90
2023-01-28T19:38:27.297Z,23.03
2023-01-28T19:40:54.311Z,22.93
2023-01-28T19:43:22.348Z,22.76
2023-01-28T19:45:55.789Z,23.21
2023-01-28T19:48:22.878Z,23.06
2023-01-28T19:50:51.153Z,23.04
2023-01-28T19:53:19.444Z,23.23
2023-01-28T19:55:46.463Z,22.94
2023-01-28T19:58:13.495Z,22.82
2023-01-28T20:00:40.506Z,22.97
2023-01-28T20:03:08.437Z,22.90
2023-01-28T20:05:35.887Z,22.92
2023-01-28T20:08:04.733Z,22.78
2023-01-28T20:10:31.783Z,23.08
2023-01-28T20:12:58.660Z,23.06
2023-01-28T20:15:25.541Z,23.23
2023-01-28T20:17:52.528Z,22.88
2023-01-28T20:20:19.375Z,22.91
2023-01-28T20:22:46.219Z,22.97
2023-01-28T20:25:15.157Z,22.92
2023-01-28T20:27:42.172Z,23.16
2023-01-28T20:30:10.417Z,23.06
2023-01-28T20:32:37.325Z,23.22
2023-01-28T20:35:04.402Z,22.87
2023-01-28T20:37:31.266Z,23.03
2023-01-28T20:39:58.141Z,22.79
2023-01-28T20:42:26.334Z,23.04
2023-01-28T20:44:53.196Z,22.92
2023-01-28T20:47:20.044Z,22.76
2023-01-28T20:49:46.883Z,22.97
2023-01-28T20:52:13.835Z,23.04
2023-01-28T20:54:40.669Z,23.03
2023-01-28T20:57:07.734Z,22.84
2023-01-28T20:59:36.518Z,23.20
2023-01-28T21:02:03.483Z,22.92
2023-01-28T21:04:30.328Z,23.03
2023-01-28T21:06:57.164Z,23.13
2023-01-28T21:09:25.613Z,23.08
2023-01-28T21:11:52.469Z,22.80
2023-01-28T21:14:19.319Z,22.96
2023-01-28T21:16:47.627Z,22.87
2023-01-28T21:19:14.499Z,23.20
2023-01-28T21:21:42.946Z,23.18
2023-01-28T21:24:11.533Z,23.09
2023-01-28T21:26:38.489Z,22.99
2023-01-28T21:29:05.811Z,23.10
2023-01-28T21:31:32.882Z,23.17
2023-01-28T21:34:03.837Z,23.02
2023-01-28T21:36:33.813Z,23.21
2023-01-28T21:39:01.413Z,23.10
2023-01-28T21:41:28.268Z,23.24
2023-01-28T21:43:57.295Z,23.28
2023-01-28T21:46:25.862Z,23.19
2023-01-28T21:48:54.744Z,23.33
2023-01-28T21:51:41.664Z,23.22
2023-01-28T21:54:12.369Z,23.26
2023-01-28T21:56:39.646Z,23.28
2023-01-28T21:59:25.063Z,23.41
2023-01-28T22:01:52.286Z,23.31
2023-01-28T22:04:19.188Z,23.40
2023-01-28T22:06:47.441Z,23.24
2023-01-28T22:09:14.554Z,23.46
2023-01-28T22:11:43.112Z,23.46
2023-01-28T22:14:10.515Z,23.32
2023-01-28T22:16:37.731Z,23.45
2023-01-28T22:19:05.385Z,23.47
2023-01-28T22:21:32.329Z,23.43
2023-01-28T22:24:00.573Z,23.60
2023-01-28T22:26:27.459Z,23.67
2023-01-28T22:28:54.276Z,23.58
2023-01-28T22:31:21.248Z,23.71
2023-01-28T22:33:48.120Z,23.54
2023-01-28T22:36:16.110Z,23.63
2023-01-28T22:38:44.672Z,23.63
2023-01-28T22:41:15.044Z,23.81
2023-01-28T22:43:42.249Z,23.71
2023-01-28T22:46:10.066Z,23.43
2023-01-28T22:48:38.195Z,23.65
2023-01-28T22:51:06.858Z,23.44
2023-01-28T22:53:34.308Z,23.65
2023-01-28T22:56:02.615Z,23.56
2023-01-28T22:58:31.876Z,23.73
2023-01-28T23:00:58.973Z,23.58
2023-01-28T23:03:26.280Z,23.71
2023-01-28T23:05:57.072Z,23.84
2023-01-28T23:08:23.911Z,23.83
2023-01-28T23:10:51.056Z,23.63
2023-01-28T23:13:19.264Z,23.67
2023-01-28T23:16:07.049Z,23.63
2023-01-28T23:18:52.789Z,23.53
2023-01-28T23:21:40.620Z,23.73
2023-01-28T23:24:24.358Z,23.82
2023-01-28T23:26:53.650Z,23.80
2023-01-28T23:29:23.845Z,23.86
2023-01-28T23:31:54.300Z,23.79
2023-01-28T23:34:22.555Z,23.79
2023-01-28T23:36:50.587Z,23.80
2023-01-28T23:39:17.480Z,23.82
2023-01-28T23:41:44.310Z,23.70
2023-01-28T23:44:11.137Z,23.56
2023-01-28T23:46:40.147Z,23.62
2023-01-28T23:49:09.781Z,23.76
2023-01-28T23:51:36.656Z,23.60
2023-01-28T23:54:03.524Z,23.76
2023-01-28T23:56:30.327Z,23.82
2023-01-28T23:58:57.161Z,23.48
